createdAt,value
2022-09-13T00:01:15.793Z,100947.91
2022-09-13T00:03:44.352Z,100954.13
2022-09-13T00:06:19.094Z,100957.72
2022-09-13T00:08:48.819Z,100945.28
2022-09-13T00:11:20.869Z,100940.84
2022-09-13T00:13:49.878Z,100947.03
2022-09-13T00:16:20.793Z,100938.22
2022-09-13T00:18:49.528Z,100930.25
2022-09-13T00:21:21.194Z,100928.44
2022-09-13T00:23:52.155Z,100927.59
2022-09-13T00:26:25.956Z,100928.53
2022-09-13T00:28:57.304Z,100921.44
2022-09-13T00:31:28.183Z,100919.66
2022-09-13T00:33:59.322Z,100918.78
2022-09-13T00:36:28.820Z,100909.00
2022-09-13T00:38:57.158Z,100892.16
2022-09-13T00:41:25.572Z,100901.97
2022-09-13T00:44:01.697Z,100898.47
2022-09-13T00:46:33.397Z,100896.72
2022-09-13T00:49:10.239Z,100891.50
2022-09-13T00:51:43.420Z,100888.91
2022-09-13T00:54:14.502Z,100895.16
2022-09-13T00:56:48.967Z,100890.75
2022-09-13T00:59:23.294Z,100894.31
2022-09-13T01:01:55.219Z,100889.03
2022-09-13T01:04:27.540Z,100890.75
2022-09-13T01:07:01.004Z,100889.06
2022-09-13T01:09:33.271Z,100879.34
2022-09-13T01:12:23.689Z,100889.06
2022-09-13T01:14:53.406Z,100876.72
2022-09-13T01:17:21.747Z,100871.44
2022-09-13T01:19:50.004Z,100875.06
2022-09-13T01:22:33.535Z,100867.97
2022-09-13T01:25:14.412Z,100861.78
2022-09-13T01:28:02.193Z,100862.63
2022-09-13T01:30:40.763Z,100860.88
2022-09-13T01:33:39.523Z,100859.94
2022-09-13T01:36:20.873Z,100850.22
2022-09-13T01:39:08.320Z,100851.09
2022-09-13T01:42:04.323Z,100865.28
2022-09-13T01:45:04.112Z,100857.31
2022-09-13T01:47:51.210Z,100853.78
2022-09-13T01:50:42.656Z,100837.78
2022-09-13T01:53:46.406Z,100842.19
2022-09-13T01:56:28.888Z,100836.00
2022-09-13T01:59:09.939Z,100838.69
2022-09-13T02:01:51.325Z,100846.69
2022-09-13T02:04:27.611Z,100839.59
2022-09-13T02:07:17.758Z,100827.19
2022-09-13T02:09:51.607Z,100821.94
2022-09-13T02:12:23.594Z,100836.13
2022-09-13T02:15:22.938Z,100837.97
2022-09-13T02:18:08.633Z,100830.88
2022-09-13T02:20:43.245Z,100827.31
2022-09-13T02:23:20.997Z,100827.31
2022-09-13T02:25:51.252Z,100842.34
2022-09-13T02:28:27.471Z,100831.72
2022-09-13T02:30:58.956Z,100833.47
2022-09-13T02:33:39.376Z,100833.47
2022-09-13T02:36:13.550Z,100831.66
2022-09-13T02:38:56.022Z,100831.66
2022-09-13T02:41:28.695Z,100830.78
2022-09-13T02:44:20.269Z,100838.75
2022-09-13T02:46:52.024Z,100829.84
2022-09-13T02:49:31.944Z,100839.63
2022-09-13T02:52:09.155Z,100845.75
2022-09-13T02:54:40.062Z,100850.09
2022-09-13T02:57:16.609Z,100849.16
2022-09-13T02:59:48.023Z,100849.13
2022-09-13T03:02:20.770Z,100852.63
2022-09-13T03:04:51.312Z,100849.03
2022-09-13T03:07:19.715Z,100851.63
2022-09-13T03:09:58.596Z,100858.75
2022-09-13T03:12:48.972Z,100851.63
2022-09-13T03:15:35.634Z,100863.19
2022-09-13T03:18:19.164Z,100848.09
2022-09-13T03:21:08.037Z,100841.94
2022-09-13T03:23:41.337Z,100850.81
2022-09-13T03:26:27.773Z,100848.22
2022-09-13T03:29:10.287Z,100850.88
2022-09-13T03:32:02.384Z,100860.59
2022-09-13T03:34:40.012Z,100863.28
2022-09-13T03:37:20.853Z,100869.53
2022-09-13T03:40:10.253Z,100866.84
2022-09-13T03:42:38.496Z,100862.44
2022-09-13T03:45:09.763Z,100865.09
2022-09-13T03:47:42.424Z,100861.53
2022-09-13T03:50:18.724Z,100858.88
2022-09-13T03:52:51.648Z,100854.41
2022-09-13T03:55:21.906Z,100859.72
2022-09-13T03:57:50.388Z,100859.72
2022-09-13T04:00:19.227Z,100859.72
2022-09-13T04:02:47.812Z,100853.50
2022-09-13T04:05:16.156Z,100856.16
2022-09-13T04:07:44.436Z,100852.63
2022-09-13T04:10:13.874Z,100858.88
2022-09-13T04:12:42.429Z,100864.19
2022-09-13T04:15:10.724Z,100862.47
2022-09-13T04:17:39.075Z,100862.56
2022-09-13T04:20:07.881Z,100866.94
2022-09-13T04:22:36.374Z,100866.06
2022-09-13T04:25:05.833Z,100867.88
2022-09-13T04:27:35.697Z,100866.94
2022-09-13T04:30:04.379Z,100863.41
2022-09-13T04:32:33.886Z,100863.38
2022-09-13T04:35:03.255Z,100864.28
2022-09-13T04:37:32.563Z,100858.97
2022-09-13T04:40:01.173Z,100860.78
2022-09-13T04:42:31.721Z,100868.78
2022-09-13T04:45:00.182Z,100860.78
2022-09-13T04:47:28.563Z,100859.06
2022-09-13T04:49:56.958Z,100866.13
2022-09-13T04:52:25.490Z,100866.19
2022-09-13T04:54:54.010Z,100873.28
2022-09-13T04:57:25.358Z,100876.88
2022-09-13T04:59:54.068Z,100875.97
2022-09-13T05:02:22.427Z,100881.31
2022-09-13T05:04:51.070Z,100874.22
2022-09-13T05:07:19.453Z,100876.88
2022-09-13T05:09:47.805Z,100876.88
2022-09-13T05:12:16.192Z,100884.88
2022-09-13T05:14:44.587Z,100888.47
2022-09-13T05:17:13.429Z,100896.38
2022-09-13T05:19:42.418Z,100904.34
2022-09-13T05:22:10.713Z,100902.56
2022-09-13T05:24:39.082Z,100910.56
2022-09-13T05:27:08.864Z,100908.81
2022-09-13T05:29:37.187Z,100914.25
2022-09-13T05:32:05.530Z,100916.03
2022-09-13T05:34:33.821Z,100919.63
2022-09-13T05:37:06.895Z,100905.53
2022-09-13T05:40:00.260Z,100913.50
2022-09-13T05:42:24.934Z,100910.03
2022-09-13T05:44:54.432Z,100911.81
2022-09-13T05:47:22.981Z,100900.38
2022-09-13T05:50:09.455Z,100910.13
2022-09-13T05:52:39.566Z,100921.66
2022-09-13T05:55:08.325Z,100917.22
2022-09-13T05:57:37.716Z,100913.63
2022-09-13T06:00:06.674Z,100911.81
2022-09-13T06:02:41.405Z,100910.88
2022-09-13T06:05:10.732Z,100913.44
2022-09-13T06:07:42.935Z,100911.59
2022-09-13T06:10:12.270Z,100911.50
2022-09-13T06:12:40.907Z,100913.25
2022-09-13T06:15:10.507Z,100911.47
2022-09-13T06:17:38.983Z,100908.78
2022-09-13T06:20:09.180Z,100925.53
2022-09-13T06:22:37.865Z,100921.00
2022-09-13T06:25:06.690Z,100924.47
2022-09-13T06:27:35.412Z,100922.63
2022-09-13T06:30:04.141Z,100917.28
2022-09-13T06:32:32.472Z,100913.66
2022-09-13T06:35:01.105Z,100920.75
2022-09-13T06:37:29.436Z,100920.72
2022-09-13T06:39:57.804Z,100925.06
2022-09-13T06:42:27.444Z,100927.66
2022-09-13T06:44:57.019Z,100932.91
2022-09-13T06:47:25.939Z,100931.03
2022-09-13T06:49:54.251Z,100928.22
2022-09-13T06:52:22.600Z,100933.41
2022-09-13T06:54:51.130Z,100935.06
2022-09-13T06:57:19.740Z,100929.69
2022-09-13T06:59:48.064Z,100929.53
2022-09-13T07:02:16.439Z,100929.31
2022-09-13T07:04:44.913Z,100934.44
2022-09-13T07:07:16.433Z,100935.09
2022-09-13T07:09:44.747Z,100933.75
2022-09-13T07:12:15.624Z,100941.13
2022-09-13T07:14:47.395Z,100943.59
2022-09-13T07:17:15.747Z,100946.22
2022-09-13T07:19:45.685Z,100944.59
2022-09-13T07:22:14.103Z,100948.31
2022-09-13T07:24:45.523Z,100954.06
2022-09-13T07:27:14.916Z,100949.66
2022-09-13T07:29:43.290Z,100955.69
2022-09-13T07:32:13.892Z,100944.13
2022-09-13T07:35:01.161Z,100949.53
2022-09-13T07:37:29.646Z,100953.00
2022-09-13T07:39:58.187Z,100951.31
2022-09-13T07:42:28.069Z,100955.13
2022-09-13T07:44:56.820Z,100953.78
2022-09-13T07:47:25.344Z,100955.28
2022-09-13T07:49:54.057Z,100963.97
2022-09-13T07:52:22.300Z,100969.22
2022-09-13T07:54:50.612Z,100972.81
2022-09-13T07:57:19.763Z,100973.69
2022-09-13T07:59:49.571Z,100965.84
2022-09-13T08:02:19.587Z,100968.75
2022-09-13T08:04:48.072Z,100968.97
2022-09-13T08:07:16.539Z,100973.66
2022-09-13T08:09:45.633Z,100974.25
2022-09-13T08:12:13.928Z,100970.34
2022-09-13T08:14:42.164Z,100979.47
2022-09-13T08:17:11.221Z,100975.72
2022-09-13T08:19:39.445Z,100978.47
2022-09-13T08:22:07.991Z,100988.19
2022-09-13T08:24:36.304Z,100986.31
2022-09-13T08:27:04.986Z,100985.94
2022-09-13T08:29:33.238Z,100981.28
2022-09-13T08:32:01.668Z,100987.50
2022-09-13T08:34:29.948Z,100990.34
2022-09-13T08:36:58.560Z,100993.88
2022-09-13T08:39:29.278Z,100993.94
2022-09-13T08:42:19.844Z,100989.91
2022-09-13T08:44:55.941Z,100986.13
2022-09-13T08:47:47.491Z,100993.34
2022-09-13T08:50:45.030Z,100992.16
2022-09-13T08:53:31.367Z,100988.31
2022-09-13T08:56:11.028Z,100992.38
2022-09-13T08:59:17.601Z,100991.91
2022-09-13T09:02:24.329Z,100999.44
2022-09-13T09:05:11.888Z,100993.38
2022-09-13T09:07:44.390Z,100990.69
2022-09-13T09:10:24.359Z,100989.81
2022-09-13T09:13:05.950Z,100996.28
2022-09-13T09:15:46.451Z,100995.56
2022-09-13T09:18:21.611Z,100988.06
2022-09-13T09:21:12.818Z,100993.66
2022-09-13T09:23:57.540Z,100989.41
2022-09-13T09:26:29.399Z,100998.59
2022-09-13T09:29:25.698Z,101000.56
2022-09-13T09:32:09.502Z,101000.13
2022-09-13T09:34:46.946Z,101001.56
2022-09-13T09:37:26.777Z,100996.38
2022-09-13T09:40:01.262Z,101000.97
2022-09-13T09:42:35.634Z,100991.13
2022-09-13T09:45:24.314Z,101005.41
2022-09-13T09:47:55.010Z,100998.47
2022-09-13T09:50:32.365Z,101001.88
2022-09-13T09:53:16.958Z,100996.28
2022-09-13T09:55:50.621Z,100997.38
2022-09-13T09:58:37.773Z,100992.03
2022-09-13T10:01:15.227Z,100993.63
2022-09-13T10:03:51.585Z,101008.09
2022-09-13T10:06:24.689Z,101003.09
2022-09-13T10:09:09.133Z,100999.81
2022-09-13T10:11:43.835Z,100997.47
2022-09-13T10:14:45.989Z,101007.59
2022-09-13T10:17:24.056Z,100998.47
2022-09-13T10:20:14.607Z,101001.44
2022-09-13T10:22:43.989Z,100992.03
2022-09-13T10:25:22.820Z,100995.16
2022-09-13T10:27:57.074Z,100994.84
2022-09-13T10:30:28.480Z,100999.03
2022-09-13T10:32:57.572Z,100989.91
2022-09-13T10:35:26.612Z,100992.38
2022-09-13T10:37:55.505Z,100989.31
2022-09-13T10:40:34.705Z,100990.13
2022-09-13T10:43:12.948Z,100990.97
2022-09-13T10:45:42.739Z,101005.47
2022-09-13T10:48:14.191Z,100999.75
2022-09-13T10:51:01.570Z,101000.69
2022-09-13T10:53:38.881Z,100990.50
2022-09-13T10:56:32.183Z,100993.53
2022-09-13T10:59:21.727Z,101000.59
2022-09-13T11:02:23.965Z,100995.50
2022-09-13T11:05:22.141Z,100995.09
2022-09-13T11:07:56.580Z,101002.31
2022-09-13T11:11:07.966Z,101005.31
2022-09-13T11:13:55.044Z,101007.13
2022-09-13T11:16:37.866Z,101013.03
2022-09-13T11:19:28.284Z,101006.13
2022-09-13T11:22:15.632Z,101006.38
2022-09-13T11:25:29.386Z,101013.50
2022-09-13T11:28:12.167Z,101008.38
2022-09-13T11:31:05.459Z,101014.66
2022-09-13T11:33:43.141Z,101010.94
2022-09-13T11:36:46.827Z,101011.84
2022-09-13T11:39:32.374Z,101008.44
2022-09-13T11:42:00.709Z,101011.41
2022-09-13T11:44:50.901Z,101015.00
2022-09-13T11:47:25.318Z,101012.88
2022-09-13T11:50:19.808Z,101010.63
2022-09-13T11:52:57.087Z,101002.84
2022-09-13T11:55:30.627Z,100998.16
2022-09-13T11:58:04.342Z,100997.84
2022-09-13T12:00:42.305Z,100999.34
2022-09-13T12:03:10.789Z,100997.34
2022-09-13T12:05:50.472Z,100999.69
2022-09-13T12:08:27.587Z,100994.06
2022-09-13T12:11:11.818Z,100988.56
2022-09-13T12:13:49.498Z,100990.34
2022-09-13T12:16:35.935Z,100999.19
2022-09-13T12:19:12.593Z,101000.94
2022-09-13T12:21:42.362Z,100998.19
2022-09-13T12:24:18.837Z,101000.94
2022-09-13T12:26:59.453Z,101005.56
2022-09-13T12:29:37.575Z,101000.81
2022-09-13T12:32:09.205Z,101000.75
2022-09-13T12:34:51.095Z,101005.75
2022-09-13T12:37:50.846Z,101005.59
2022-09-13T12:40:50.149Z,101015.00
2022-09-13T12:43:42.166Z,101016.38
2022-09-13T12:46:32.347Z,101018.47
2022-09-13T12:49:17.766Z,101013.16
2022-09-13T12:52:23.551Z,101005.91
2022-09-13T12:55:44.796Z,101013.41
2022-09-13T12:58:30.569Z,101021.75
2022-09-13T13:01:14.148Z,101016.34
2022-09-13T13:03:58.263Z,101015.44
2022-09-13T13:06:56.933Z,101017.97
2022-09-13T13:09:33.977Z,101011.72
2022-09-13T13:12:03.169Z,101016.34
2022-09-13T13:14:40.479Z,101012.94
2022-09-13T13:17:36.647Z,101012.19
2022-09-13T13:20:41.154Z,101015.88
2022-09-13T13:23:45.742Z,101001.81
2022-09-13T13:26:42.673Z,101021.63
2022-09-13T13:29:15.950Z,101007.66
2022-09-13T13:32:09.728Z,101001.75
2022-09-13T13:34:47.784Z,101002.06
2022-09-13T13:37:19.124Z,101009.47
2022-09-13T13:40:21.367Z,101003.34
2022-09-13T13:42:50.003Z,100998.81
2022-09-13T13:45:27.657Z,100997.66
2022-09-13T13:48:06.954Z,100999.28
2022-09-13T13:50:39.112Z,100996.53
2022-09-13T13:53:33.626Z,100998.22
2022-09-13T13:56:33.957Z,100992.78
2022-09-13T13:59:22.249Z,101006.06
2022-09-13T14:01:55.303Z,101000.94
2022-09-13T14:04:40.894Z,100988.69
2022-09-13T14:07:29.454Z,100994.03
2022-09-13T14:10:21.625Z,100991.53
2022-09-13T14:12:57.021Z,100995.84
2022-09-13T14:15:41.258Z,100998.69
2022-09-13T14:18:54.736Z,100989.97
2022-09-13T14:21:27.556Z,100986.53
2022-09-13T14:24:19.888Z,100992.81
2022-09-13T14:26:51.010Z,100981.09
2022-09-13T14:29:22.107Z,100987.31
2022-09-13T14:31:53.700Z,100986.44
2022-09-13T14:34:32.791Z,100975.56
2022-09-13T14:37:04.627Z,100978.97
2022-09-13T14:39:33.867Z,100994.16
2022-09-13T14:42:16.325Z,100987.78
2022-09-13T14:44:46.085Z,100985.00
2022-09-13T14:47:36.757Z,100985.00
2022-09-13T14:50:24.125Z,100978.09
2022-09-13T14:52:57.236Z,100983.53
2022-09-13T14:55:37.698Z,100987.16
2022-09-13T14:58:13.794Z,100993.38
2022-09-13T15:01:09.104Z,100995.31
2022-09-13T15:03:42.422Z,100991.78
2022-09-13T15:06:27.646Z,100991.78
2022-09-13T15:09:15.197Z,101001.63
2022-09-13T15:11:52.560Z,100996.28
2022-09-13T15:14:37.374Z,100993.59
2022-09-13T15:17:15.168Z,100989.16
2022-09-13T15:20:02.190Z,100977.66
2022-09-13T15:22:33.308Z,100981.34
2022-09-13T15:25:02.442Z,100986.00
2022-09-13T15:27:42.897Z,100986.16
2022-09-13T15:30:28.346Z,100984.50
2022-09-13T15:33:09.103Z,100988.22
2022-09-13T15:35:40.823Z,100983.72
2022-09-13T15:38:27.876Z,100991.94
2022-09-13T15:41:21.913Z,100994.84
2022-09-13T15:43:50.222Z,101003.00
2022-09-13T15:46:19.106Z,100996.97
2022-09-13T15:48:54.593Z,100990.03
2022-09-13T15:51:23.261Z,100996.44
2022-09-13T15:53:51.908Z,100992.06
2022-09-13T15:56:34.689Z,101000.19
2022-09-13T15:59:03.123Z,100991.34
2022-09-13T16:01:31.937Z,100989.59
2022-09-13T16:04:04.078Z,100992.41
2022-09-13T16:06:32.418Z,100989.84
2022-09-13T16:09:01.040Z,100984.63
2022-09-13T16:11:29.351Z,100983.72
2022-09-13T16:13:58.643Z,100981.06
2022-09-13T16:16:27.281Z,100987.41
2022-09-13T16:18:55.610Z,100994.66
2022-09-13T16:21:24.080Z,100995.53
2022-09-13T16:23:52.355Z,100995.53
2022-09-13T16:26:20.769Z,100984.84
2022-09-13T16:28:49.255Z,100984.00
2022-09-13T16:31:20.173Z,100994.78
2022-09-13T16:33:48.492Z,100987.78
2022-09-13T16:36:19.378Z,100994.19
2022-09-13T16:38:47.819Z,100998.78
2022-09-13T16:41:18.162Z,101006.88
2022-09-13T16:43:46.541Z,100998.06
2022-09-13T16:46:15.417Z,101001.69
2022-09-13T16:48:44.201Z,101003.63
2022-09-13T16:51:13.310Z,101000.16
2022-09-13T16:53:43.250Z,100996.66
2022-09-13T16:56:13.349Z,100999.44
2022-09-13T16:58:44.764Z,100996.06
2022-09-13T17:01:15.734Z,100983.78
2022-09-13T17:03:44.729Z,100993.63
2022-09-13T17:06:15.556Z,100988.34
2022-09-13T17:08:49.443Z,100988.41
2022-09-13T17:11:22.389Z,100978.75
2022-09-13T17:13:51.998Z,100982.38
2022-09-13T17:16:30.783Z,100987.78
2022-09-13T17:19:03.681Z,100978.97
2022-09-13T17:21:33.841Z,100996.88
2022-09-13T17:24:02.694Z,100987.13
2022-09-13T17:26:32.137Z,100987.16
2022-09-13T17:29:01.217Z,100983.69
2022-09-13T17:31:30.044Z,100978.38
2022-09-13T17:33:58.914Z,100984.59
2022-09-13T17:36:27.259Z,100987.34
2022-09-13T17:38:57.104Z,100985.59
2022-09-13T17:41:26.999Z,100990.94
2022-09-13T17:43:55.478Z,100989.16
2022-09-13T17:46:27.871Z,100993.66
2022-09-13T17:48:58.599Z,100992.81
2022-09-13T17:51:29.414Z,100996.38
2022-09-13T17:54:01.248Z,100989.34
2022-09-13T17:56:33.744Z,100992.94
2022-09-13T17:59:18.579Z,100992.06
2022-09-13T18:01:50.492Z,100996.53
2022-09-13T18:04:21.600Z,100993.03
2022-09-13T18:06:53.932Z,101001.06
2022-09-13T18:09:22.754Z,100996.69
2022-09-13T18:11:53.127Z,100997.69
2022-09-13T18:14:21.553Z,100988.84
2022-09-13T18:16:55.433Z,100987.09
2022-09-13T18:19:44.365Z,100985.41
2022-09-13T18:22:12.990Z,100989.06
2022-09-13T18:24:41.487Z,100989.97
2022-09-13T18:27:09.779Z,100987.41
2022-09-13T18:29:38.623Z,100986.59
2022-09-13T18:32:07.033Z,100984.84
2022-09-13T18:34:37.627Z,100980.47
2022-09-13T18:37:06.058Z,100984.94
2022-09-13T18:39:35.205Z,100981.44
2022-09-13T18:42:07.747Z,100982.34
2022-09-13T18:44:36.187Z,100988.59
2022-09-13T18:47:05.416Z,100985.97
2022-09-13T18:49:33.792Z,100985.13
2022-09-13T18:52:03.272Z,100983.41
2022-09-13T18:54:32.891Z,100986.13
2022-09-13T18:57:02.266Z,100981.78
2022-09-13T18:59:34.653Z,100980.03
2022-09-13T19:02:04.087Z,100981.81
2022-09-13T19:04:33.881Z,100987.16
2022-09-13T19:07:06.977Z,100987.19
2022-09-13T19:09:35.982Z,100984.63
2022-09-13T19:12:05.631Z,100984.63
2022-09-13T19:14:34.658Z,100978.41
2022-09-13T19:17:04.749Z,100977.56
2022-09-13T19:19:42.636Z,100984.69
2022-09-13T19:22:11.489Z,100973.19
2022-09-13T19:24:40.608Z,100976.84
2022-09-13T19:27:09.688Z,100975.16
2022-09-13T19:29:39.008Z,100977.03
2022-09-13T19:32:08.856Z,100977.06
2022-09-13T19:34:37.523Z,100981.53
2022-09-13T19:37:09.899Z,100972.75
2022-09-13T19:39:38.708Z,100973.66
2022-09-13T19:42:08.102Z,100977.22
2022-09-13T19:44:36.685Z,100968.38
2022-09-13T19:47:53.259Z,100967.50
2022-09-13T19:49:55.993Z,100966.66
2022-09-13T19:52:24.630Z,100970.19
2022-09-13T19:54:56.221Z,100972.00
2022-09-13T19:57:25.417Z,100959.69
2022-09-13T19:59:53.714Z,100957.91
2022-09-13T20:02:22.122Z,100947.34
2022-09-13T20:04:50.673Z,100956.19
2022-09-13T20:07:18.957Z,100953.53
2022-09-13T20:09:47.189Z,100951.78
2022-09-13T20:12:15.568Z,100950.03
2022-09-13T20:14:43.971Z,100949.19
2022-09-13T20:17:12.524Z,100952.72
2022-09-13T20:19:44.886Z,100958.06
2022-09-13T20:22:16.331Z,100963.38
2022-09-13T20:24:44.587Z,100967.84
2022-09-13T20:27:13.496Z,100968.72
2022-09-13T20:29:41.934Z,100968.75
2022-09-13T20:32:11.282Z,100960.84
2022-09-13T20:34:39.906Z,100961.72
2022-09-13T20:37:08.448Z,100966.22
2022-09-13T20:39:36.892Z,100960.03
2022-09-13T20:42:05.170Z,100959.19
2022-09-13T20:44:33.462Z,100969.84
2022-09-13T20:47:02.175Z,100961.03
2022-09-13T20:49:30.492Z,100951.34
2022-09-13T20:51:59.988Z,100946.09
2022-09-13T20:54:28.424Z,100947.09
2022-09-13T20:56:58.237Z,100951.59
2022-09-13T20:59:26.710Z,100951.66
2022-09-13T21:01:55.232Z,100949.94
2022-09-13T21:04:24.321Z,100938.47
2022-09-13T21:07:14.983Z,100935.88
2022-09-13T21:09:43.525Z,100929.78
2022-09-13T21:12:11.797Z,100934.28
2022-09-13T21:14:40.075Z,100920.16
2022-09-13T21:17:08.790Z,100918.44
2022-09-13T21:19:37.306Z,100921.13
2022-09-13T21:22:05.749Z,100916.75
2022-09-13T21:24:34.267Z,100919.44
2022-09-13T21:27:02.917Z,100923.03
2022-09-13T21:29:32.806Z,100931.97
2022-09-13T21:32:01.338Z,100925.84
2022-09-13T21:34:29.818Z,100930.31
2022-09-13T21:36:58.128Z,100922.41
2022-09-13T21:39:26.926Z,100928.63
2022-09-13T21:41:55.265Z,100933.13
2022-09-13T21:44:23.689Z,100930.56
2022-09-13T21:46:52.142Z,100926.19
2022-09-13T21:49:20.462Z,100924.44
2022-09-13T21:51:52.042Z,100926.22
2022-09-13T21:54:20.873Z,100928.06
2022-09-13T21:56:54.181Z,100920.09
2022-09-13T21:59:23.592Z,100922.78
2022-09-13T22:01:53.864Z,100920.19
2022-09-13T22:04:25.473Z,100919.34
2022-09-13T22:06:54.059Z,100921.16
2022-09-13T22:09:27.184Z,100914.13
2022-09-13T22:11:57.289Z,100916.81
2022-09-13T22:14:26.663Z,100917.78
2022-09-13T22:16:55.191Z,100904.53
2022-09-13T22:19:26.785Z,100916.97
2022-09-13T22:21:59.853Z,100908.16
2022-09-13T22:24:32.188Z,100903.78
2022-09-13T22:27:01.146Z,100912.63
2022-09-13T22:29:29.982Z,100910.84
2022-09-13T22:31:58.551Z,100907.31
2022-09-13T22:34:30.861Z,100917.06
2022-09-13T22:37:00.259Z,100910.91
2022-09-13T22:39:28.900Z,100906.47
2022-09-13T22:41:57.278Z,100915.34
2022-09-13T22:44:25.770Z,100903.91
2022-09-13T22:46:54.661Z,100913.63
2022-09-13T22:49:25.182Z,100919.84
2022-09-13T22:51:53.487Z,100919.00
2022-09-13T22:54:22.551Z,100919.03
2022-09-13T22:56:50.910Z,100917.31
2022-09-13T22:59:20.734Z,100919.13
2022-09-13T23:01:49.672Z,100914.75
2022-09-13T23:04:17.956Z,100911.25
2022-09-13T23:06:46.661Z,100909.50
2022-09-13T23:09:18.205Z,100901.63
2022-09-13T23:11:47.574Z,100892.81
2022-09-13T23:14:17.541Z,100882.25
2022-09-13T23:16:51.966Z,100882.31
2022-09-13T23:19:23.116Z,100884.13
2022-09-13T23:21:52.881Z,100878.91
2022-09-13T23:24:22.428Z,100886.88
2022-09-13T23:26:50.869Z,100887.78
2022-09-13T23:29:20.402Z,100876.34
2022-09-13T23:31:49.712Z,100881.66
2022-09-13T23:34:18.243Z,100878.16
2022-09-13T23:36:47.134Z,100876.44
2022-09-13T23:39:18.693Z,100877.38
2022-09-13T23:41:49.131Z,100875.63
2022-09-13T23:44:17.716Z,100873.03
2022-09-13T23:46:46.088Z,100879.28
2022-09-13T23:49:14.429Z,100882.81
2022-09-13T23:51:43.238Z,100876.66
2022-09-13T23:54:13.002Z,100878.44
2022-09-13T23:56:41.979Z,100876.66
2022-09-13T23:59:12.320Z,100874.06
